sensor_id;sensor_type;location;lat;lon;timestamp;P1;durP1;ratioP1;P2;durP2;ratioP2
60169;SDS011;46042;49.444;6.862;2024-01-06T00:01:05;13.80;;;4.20;;
60169;SDS011;46042;49.444;6.862;2024-01-06T00:06:03;7.63;;;3.28;;
60169;SDS011;46042;49.444;6.862;2024-01-06T00:08:30;16.48;;;4.97;;
60169;SDS011;46042;49.444;6.862;2024-01-06T00:10:56;8.07;;;3.35;;
60169;SDS011;46042;49.444;6.862;2024-01-06T00:13:23;9.00;;;3.47;;
60169;SDS011;46042;49.444;6.862;2024-01-06T00:15:50;8.88;;;3.17;;
60169;SDS011;46042;49.444;6.862;2024-01-06T00:18:17;9.45;;;2.67;;
60169;SDS011;46042;49.444;6.862;2024-01-06T00:20:43;8.00;;;3.17;;
60169;SDS011;46042;49.444;6.862;2024-01-06T00:23:10;13.85;;;3.83;;
60169;SDS011;46042;49.444;6.862;2024-01-06T00:25:37;13.73;;;3.75;;
60169;SDS011;46042;49.444;6.862;2024-01-06T00:28:04;6.85;;;3.25;;
60169;SDS011;46042;49.444;6.862;2024-01-06T00:30:31;13.00;;;3.53;;
60169;SDS011;46042;49.444;6.862;2024-01-06T00:32:57;13.40;;;3.30;;
60169;SDS011;46042;49.444;6.862;2024-01-06T00:35:24;6.55;;;3.10;;
60169;SDS011;46042;49.444;6.862;2024-01-06T00:37:51;8.55;;;2.80;;
60169;SDS011;46042;49.444;6.862;2024-01-06T00:40:18;4.53;;;2.65;;
60169;SDS011;46042;49.444;6.862;2024-01-06T00:42:45;7.47;;;2.97;;
60169;SDS011;46042;49.444;6.862;2024-01-06T00:45:12;9.18;;;2.92;;
60169;SDS011;46042;49.444;6.862;2024-01-06T00:47:39;9.43;;;2.85;;
60169;SDS011;46042;49.444;6.862;2024-01-06T00:50:06;8.90;;;2.75;;
60169;SDS011;46042;49.444;6.862;2024-01-06T00:52:33;5.28;;;2.90;;
60169;SDS011;46042;49.444;6.862;2024-01-06T00:55:00;3.38;;;2.13;;
60169;SDS011;46042;49.444;6.862;2024-01-06T00:57:26;6.70;;;2.17;;
60169;SDS011;46042;49.444;6.862;2024-01-06T00:59:53;6.93;;;3.00;;
60169;SDS011;46042;49.444;6.862;2024-01-06T01:02:20;7.05;;;2.78;;
60169;SDS011;46042;49.444;6.862;2024-01-06T01:04:46;8.80;;;3.00;;
60169;SDS011;46042;49.444;6.862;2024-01-06T01:07:13;10.30;;;3.58;;
60169;SDS011;46042;49.444;6.862;2024-01-06T01:09:40;8.55;;;3.20;;
60169;SDS011;46042;49.444;6.862;2024-01-06T01:12:07;6.38;;;3.63;;
60169;SDS011;46042;49.444;6.862;2024-01-06T01:14:33;4.93;;;2.20;;
60169;SDS011;46042;49.444;6.862;2024-01-06T01:17:00;12.00;;;3.58;;
60169;SDS011;46042;49.444;6.862;2024-01-06T01:19:27;15.50;;;3.00;;
60169;SDS011;46042;49.444;6.862;2024-01-06T01:21:53;5.75;;;2.28;;
60169;SDS011;46042;49.444;6.862;2024-01-06T01:24:22;12.32;;;2.45;;
60169;SDS011;46042;49.444;6.862;2024-01-06T01:26:49;10.43;;;2.75;;
60169;SDS011;46042;49.444;6.862;2024-01-06T01:29:16;7.32;;;2.78;;
60169;SDS011;46042;49.444;6.862;2024-01-06T01:31:43;7.32;;;3.67;;
60169;SDS011;46042;49.444;6.862;2024-01-06T01:34:10;14.05;;;3.70;;
60169;SDS011;46042;49.444;6.862;2024-01-06T01:36:37;17.08;;;3.80;;
60169;SDS011;46042;49.444;6.862;2024-01-06T01:39:04;16.42;;;4.72;;
60169;SDS011;46042;49.444;6.862;2024-01-06T01:41:31;7.30;;;3.10;;
60169;SDS011;46042;49.444;6.862;2024-01-06T01:43:57;8.65;;;2.58;;
60169;SDS011;46042;49.444;6.862;2024-01-06T01:46:25;9.02;;;3.47;;
60169;SDS011;46042;49.444;6.862;2024-01-06T01:48:53;6.85;;;2.25;;
60169;SDS011;46042;49.444;6.862;2024-01-06T01:51:21;7.28;;;2.53;;
60169;SDS011;46042;49.444;6.862;2024-01-06T01:53:49;8.18;;;2.22;;
60169;SDS011;46042;49.444;6.862;2024-01-06T01:56:16;5.43;;;2.47;;
60169;SDS011;46042;49.444;6.862;2024-01-06T01:58:43;13.05;;;2.90;;
60169;SDS011;46042;49.444;6.862;2024-01-06T02:01:10;9.35;;;2.33;;
60169;SDS011;46042;49.444;6.862;2024-01-06T02:03:37;8.95;;;2.30;;
60169;SDS011;46042;49.444;6.862;2024-01-06T02:06:07;8.85;;;2.40;;
60169;SDS011;46042;49.444;6.862;2024-01-06T02:08:34;4.80;;;2.58;;
60169;SDS011;46042;49.444;6.862;2024-01-06T02:11:00;9.18;;;2.50;;
60169;SDS011;46042;49.444;6.862;2024-01-06T02:13:33;6.90;;;2.70;;
60169;SDS011;46042;49.444;6.862;2024-01-06T02:16:04;7.75;;;2.95;;
60169;SDS011;46042;49.444;6.862;2024-01-06T02:18:31;8.35;;;2.70;;
60169;SDS011;46042;49.444;6.862;2024-01-06T02:21:00;7.65;;;2.28;;
60169;SDS011;46042;49.444;6.862;2024-01-06T02:23:28;4.00;;;2.40;;
60169;SDS011;46042;49.444;6.862;2024-01-06T02:25:55;12.75;;;2.55;;
60169;SDS011;46042;49.444;6.862;2024-01-06T02:28:22;11.50;;;2.90;;
60169;SDS011;46042;49.444;6.862;2024-01-06T02:30:49;3.88;;;2.45;;
60169;SDS011;46042;49.444;6.862;2024-01-06T02:33:16;5.38;;;2.25;;
60169;SDS011;46042;49.444;6.862;2024-01-06T02:35:46;7.15;;;2.38;;
60169;SDS011;46042;49.444;6.862;2024-01-06T02:38:13;11.55;;;2.88;;
60169;SDS011;46042;49.444;6.862;2024-01-06T02:40:39;3.50;;;1.90;;
60169;SDS011;46042;49.444;6.862;2024-01-06T02:43:06;9.55;;;2.03;;
60169;SDS011;46042;49.444;6.862;2024-01-06T02:45:33;3.65;;;2.28;;
60169;SDS011;46042;49.444;6.862;2024-01-06T02:48:00;5.63;;;2.47;;
60169;SDS011;46042;49.444;6.862;2024-01-06T02:50:26;6.43;;;2.22;;
60169;SDS011;46042;49.444;6.862;2024-01-06T02:52:53;4.22;;;2.30;;
60169;SDS011;46042;49.444;6.862;2024-01-06T02:55:20;6.45;;;2.50;;
60169;SDS011;46042;49.444;6.862;2024-01-06T02:57:47;6.15;;;2.38;;
60169;SDS011;46042;49.444;6.862;2024-01-06T03:00:14;11.63;;;3.17;;
60169;SDS011;46042;49.444;6.862;2024-01-06T03:02:41;3.58;;;2.47;;
60169;SDS011;46042;49.444;6.862;2024-01-06T03:05:09;4.38;;;2.20;;
60169;SDS011;46042;49.444;6.862;2024-01-06T03:07:36;5.63;;;2.10;;
60169;SDS011;46042;49.444;6.862;2024-01-06T03:10:03;8.93;;;2.40;;
60169;SDS011;46042;49.444;6.862;2024-01-06T03:12:30;2.72;;;1.73;;
60169;SDS011;46042;49.444;6.862;2024-01-06T03:14:57;5.50;;;1.83;;
60169;SDS011;46042;49.444;6.862;2024-01-06T03:17:24;7.40;;;2.70;;
60169;SDS011;46042;49.444;6.862;2024-01-06T03:19:51;8.57;;;2.20;;
60169;SDS011;46042;49.444;6.862;2024-01-06T03:22:18;4.38;;;2.03;;
60169;SDS011;46042;49.444;6.862;2024-01-06T03:24:45;6.70;;;2.55;;
60169;SDS011;46042;49.444;6.862;2024-01-06T03:27:11;6.00;;;2.55;;
60169;SDS011;46042;49.444;6.862;2024-01-06T03:29:39;7.32;;;1.98;;
60169;SDS011;46042;49.444;6.862;2024-01-06T03:32:06;10.68;;;2.10;;
60169;SDS011;46042;49.444;6.862;2024-01-06T03:34:32;3.88;;;1.90;;
60169;SDS011;46042;49.444;6.862;2024-01-06T03:36:59;6.60;;;2.60;;
60169;SDS011;46042;49.444;6.862;2024-01-06T03:39:26;4.05;;;2.00;;
60169;SDS011;46042;49.444;6.862;2024-01-06T03:41:52;5.60;;;2.38;;
60169;SDS011;46042;49.444;6.862;2024-01-06T03:44:19;4.78;;;2.22;;
60169;SDS011;46042;49.444;6.862;2024-01-06T03:46:46;7.75;;;2.35;;
60169;SDS011;46042;49.444;6.862;2024-01-06T03:49:12;5.53;;;2.70;;
60169;SDS011;46042;49.444;6.862;2024-01-06T03:51:39;9.00;;;2.60;;
60169;SDS011;46042;49.444;6.862;2024-01-06T03:54:06;6.43;;;2.67;;
60169;SDS011;46042;49.444;6.862;2024-01-06T03:56:33;6.00;;;2.40;;
60169;SDS011;46042;49.444;6.862;2024-01-06T03:58:59;2.63;;;2.05;;
60169;SDS011;46042;49.444;6.862;2024-01-06T04:01:26;6.05;;;2.53;;
60169;SDS011;46042;49.444;6.862;2024-01-06T04:03:54;8.10;;;2.20;;
60169;SDS011;46042;49.444;6.862;2024-01-06T04:06:21;4.65;;;2.40;;
60169;SDS011;46042;49.444;6.862;2024-01-06T04:08:47;3.20;;;1.80;;
60169;SDS011;46042;49.444;6.862;2024-01-06T04:11:14;5.50;;;2.78;;
60169;SDS011;46042;49.444;6.862;2024-01-06T04:13:41;8.48;;;2.97;;
60169;SDS011;46042;49.444;6.862;2024-01-06T04:16:08;5.57;;;2.35;;
60169;SDS011;46042;49.444;6.862;2024-01-06T04:18:34;8.57;;;2.15;;
60169;SDS011;46042;49.444;6.862;2024-01-06T04:21:01;6.45;;;2.35;;
60169;SDS011;46042;49.444;6.862;2024-01-06T04:23:28;4.35;;;2.40;;
60169;SDS011;46042;49.444;6.862;2024-01-06T04:25:55;3.85;;;2.30;;
60169;SDS011;46042;49.444;6.862;2024-01-06T04:28:21;7.85;;;2.45;;
60169;SDS011;46042;49.444;6.862;2024-01-06T04:30:48;5.80;;;2.58;;
60169;SDS011;46042;49.444;6.862;2024-01-06T04:33:16;8.10;;;3.38;;
60169;SDS011;46042;49.444;6.862;2024-01-06T04:35:43;7.38;;;3.10;;
60169;SDS011;46042;49.444;6.862;2024-01-06T04:38:10;5.40;;;2.65;;
60169;SDS011;46042;49.444;6.862;2024-01-06T04:40:37;4.70;;;3.35;;
60169;SDS011;46042;49.444;6.862;2024-01-06T04:43:03;7.40;;;2.65;;
60169;SDS011;46042;49.444;6.862;2024-01-06T04:45:30;11.88;;;3.30;;
60169;SDS011;46042;49.444;6.862;2024-01-06T04:47:57;5.72;;;2.65;;
60169;SDS011;46042;49.444;6.862;2024-01-06T04:50:24;12.82;;;2.80;;
60169;SDS011;46042;49.444;6.862;2024-01-06T04:52:50;6.90;;;2.40;;
60169;SDS011;46042;49.444;6.862;2024-01-06T04:55:17;4.93;;;2.60;;
60169;SDS011;46042;49.444;6.862;2024-01-06T04:57:44;4.68;;;2.63;;
60169;SDS011;46042;49.444;6.862;2024-01-06T05:00:11;4.57;;;2.63;;
60169;SDS011;46042;49.444;6.862;2024-01-06T05:02:38;8.65;;;2.90;;
60169;SDS011;46042;49.444;6.862;2024-01-06T05:05:05;7.03;;;2.95;;
60169;SDS011;46042;49.444;6.862;2024-01-06T05:07:32;12.90;;;3.47;;
60169;SDS011;46042;49.444;6.862;2024-01-06T05:09:59;4.50;;;2.50;;
60169;SDS011;46042;49.444;6.862;2024-01-06T05:12:30;7.97;;;2.75;;
60169;SDS011;46042;49.444;6.862;2024-01-06T05:14:57;6.88;;;2.88;;
60169;SDS011;46042;49.444;6.862;2024-01-06T05:17:23;4.88;;;2.70;;
60169;SDS011;46042;49.444;6.862;2024-01-06T05:19:50;11.63;;;3.35;;
60169;SDS011;46042;49.444;6.862;2024-01-06T05:22:17;5.88;;;3.08;;
60169;SDS011;46042;49.444;6.862;2024-01-06T05:24:44;6.20;;;3.20;;
60169;SDS011;46042;49.444;6.862;2024-01-06T05:27:12;6.60;;;3.40;;
60169;SDS011;46042;49.444;6.862;2024-01-06T05:29:39;10.20;;;3.65;;
60169;SDS011;46042;49.444;6.862;2024-01-06T05:32:06;10.80;;;5.50;;
60169;SDS011;46042;49.444;6.862;2024-01-06T05:34:33;5.75;;;3.85;;
60169;SDS011;46042;49.444;6.862;2024-01-06T05:37:00;9.32;;;5.07;;
60169;SDS011;46042;49.444;6.862;2024-01-06T05:39:27;9.82;;;4.75;;
60169;SDS011;46042;49.444;6.862;2024-01-06T05:41:54;15.48;;;7.70;;
60169;SDS011;46042;49.444;6.862;2024-01-06T05:44:20;17.33;;;7.43;;
60169;SDS011;46042;49.444;6.862;2024-01-06T05:46:47;15.18;;;7.07;;
60169;SDS011;46042;49.444;6.862;2024-01-06T05:49:14;11.25;;;5.68;;
60169;SDS011;46042;49.444;6.862;2024-01-06T05:51:44;10.77;;;3.95;;
60169;SDS011;46042;49.444;6.862;2024-01-06T05:54:12;10.38;;;3.92;;
60169;SDS011;46042;49.444;6.862;2024-01-06T05:56:39;10.02;;;3.97;;
60169;SDS011;46042;49.444;6.862;2024-01-06T05:59:06;10.02;;;4.00;;
60169;SDS011;46042;49.444;6.862;2024-01-06T06:01:33;8.27;;;4.20;;
60169;SDS011;46042;49.444;6.862;2024-01-06T06:04:00;8.02;;;3.55;;
60169;SDS011;46042;49.444;6.862;2024-01-06T06:06:27;12.27;;;3.50;;
60169;SDS011;46042;49.444;6.862;2024-01-06T06:08:54;7.53;;;3.92;;
60169;SDS011;46042;49.444;6.862;2024-01-06T06:11:21;8.15;;;3.35;;
60169;SDS011;46042;49.444;6.862;2024-01-06T06:13:47;10.18;;;3.63;;
60169;SDS011;46042;49.444;6.862;2024-01-06T06:16:15;9.05;;;4.00;;
60169;SDS011;46042;49.444;6.862;2024-01-06T06:18:41;5.82;;;3.38;;
60169;SDS011;46042;49.444;6.862;2024-01-06T06:21:08;8.45;;;3.42;;
60169;SDS011;46042;49.444;6.862;2024-01-06T06:23:36;9.77;;;4.68;;
60169;SDS011;46042;49.444;6.862;2024-01-06T06:26:06;5.95;;;3.42;;
60169;SDS011;46042;49.444;6.862;2024-01-06T06:28:33;8.25;;;3.90;;
60169;SDS011;46042;49.444;6.862;2024-01-06T06:31:01;9.20;;;3.97;;
60169;SDS011;46042;49.444;6.862;2024-01-06T06:33:28;10.70;;;4.30;;
60169;SDS011;46042;49.444;6.862;2024-01-06T06:35:55;13.57;;;4.35;;
60169;SDS011;46042;49.444;6.862;2024-01-06T06:38:22;9.73;;;3.40;;
60169;SDS011;46042;49.444;6.862;2024-01-06T06:40:48;6.68;;;3.78;;
60169;SDS011;46042;49.444;6.862;2024-01-06T06:43:15;8.77;;;4.32;;
60169;SDS011;46042;49.444;6.862;2024-01-06T06:45:45;4.57;;;2.97;;
60169;SDS011;46042;49.444;6.862;2024-01-06T06:48:12;6.25;;;3.42;;
60169;SDS011;46042;49.444;6.862;2024-01-06T06:50:39;8.73;;;4.50;;
60169;SDS011;46042;49.444;6.862;2024-01-06T06:53:07;8.80;;;4.25;;
60169;SDS011;46042;49.444;6.862;2024-01-06T06:55:34;10.40;;;5.18;;
60169;SDS011;46042;49.444;6.862;2024-01-06T06:58:04;13.63;;;5.32;;
60169;SDS011;46042;49.444;6.862;2024-01-06T07:00:31;17.50;;;5.25;;
60169;SDS011;46042;49.444;6.862;2024-01-06T07:02:59;12.57;;;4.65;;
60169;SDS011;46042;49.444;6.862;2024-01-06T07:05:26;7.45;;;3.80;;
60169;SDS011;46042;49.444;6.862;2024-01-06T07:07:53;9.18;;;4.10;;
60169;SDS011;46042;49.444;6.862;2024-01-06T07:10:20;5.15;;;3.28;;
60169;SDS011;46042;49.444;6.862;2024-01-06T07:12:46;9.43;;;3.60;;
60169;SDS011;46042;49.444;6.862;2024-01-06T07:15:13;8.55;;;4.03;;
60169;SDS011;46042;49.444;6.862;2024-01-06T07:17:40;7.93;;;3.85;;
60169;SDS011;46042;49.444;6.862;2024-01-06T07:20:07;11.30;;;4.10;;
60169;SDS011;46042;49.444;6.862;2024-01-06T07:22:34;12.40;;;4.72;;
60169;SDS011;46042;49.444;6.862;2024-01-06T07:25:01;7.75;;;3.72;;
60169;SDS011;46042;49.444;6.862;2024-01-06T07:27:27;7.78;;;4.63;;
60169;SDS011;46042;49.444;6.862;2024-01-06T07:29:54;14.20;;;4.95;;
60169;SDS011;46042;49.444;6.862;2024-01-06T07:32:24;11.27;;;5.05;;
60169;SDS011;46042;49.444;6.862;2024-01-06T07:34:51;10.15;;;5.07;;
60169;SDS011;46042;49.444;6.862;2024-01-06T07:37:19;12.15;;;4.10;;
60169;SDS011;46042;49.444;6.862;2024-01-06T07:39:45;9.27;;;4.55;;
60169;SDS011;46042;49.444;6.862;2024-01-06T07:42:12;10.93;;;4.40;;
60169;SDS011;46042;49.444;6.862;2024-01-06T07:44:39;8.23;;;3.88;;
60169;SDS011;46042;49.444;6.862;2024-01-06T07:47:05;9.27;;;3.83;;
60169;SDS011;46042;49.444;6.862;2024-01-06T07:49:32;11.98;;;4.38;;
60169;SDS011;46042;49.444;6.862;2024-01-06T07:51:59;10.30;;;4.93;;
60169;SDS011;46042;49.444;6.862;2024-01-06T07:54:26;8.88;;;4.13;;
60169;SDS011;46042;49.444;6.862;2024-01-06T07:56:53;6.43;;;4.00;;
60169;SDS011;46042;49.444;6.862;2024-01-06T07:59:20;5.50;;;3.47;;
60169;SDS011;46042;49.444;6.862;2024-01-06T08:01:47;11.27;;;4.40;;
60169;SDS011;46042;49.444;6.862;2024-01-06T08:04:13;10.77;;;4.32;;
60169;SDS011;46042;49.444;6.862;2024-01-06T08:06:41;7.25;;;4.03;;
60169;SDS011;46042;49.444;6.862;2024-01-06T08:09:08;10.15;;;4.80;;
60169;SDS011;46042;49.444;6.862;2024-01-06T08:11:34;7.22;;;3.88;;
60169;SDS011;46042;49.444;6.862;2024-01-06T08:14:01;6.80;;;3.83;;
60169;SDS011;46042;49.444;6.862;2024-01-06T08:16:28;11.40;;;5.43;;
60169;SDS011;46042;49.444;6.862;2024-01-06T08:18:55;8.10;;;4.45;;
60169;SDS011;46042;49.444;6.862;2024-01-06T08:21:22;8.95;;;5.03;;
60169;SDS011;46042;49.444;6.862;2024-01-06T08:23:49;11.20;;;4.68;;
60169;SDS011;46042;49.444;6.862;2024-01-06T08:26:16;8.75;;;4.72;;
60169;SDS011;46042;49.444;6.862;2024-01-06T08:28:43;9.90;;;4.38;;
60169;SDS011;46042;49.444;6.862;2024-01-06T08:31:10;9.63;;;4.35;;
60169;SDS011;46042;49.444;6.862;2024-01-06T08:33:37;12.23;;;4.97;;
60169;SDS011;46042;49.444;6.862;2024-01-06T08:36:05;12.15;;;4.78;;
60169;SDS011;46042;49.444;6.862;2024-01-06T08:38:32;7.40;;;3.80;;
60169;SDS011;46042;49.444;6.862;2024-01-06T08:40:58;16.35;;;4.25;;
60169;SDS011;46042;49.444;6.862;2024-01-06T08:43:25;10.18;;;4.50;;
60169;SDS011;46042;49.444;6.862;2024-01-06T08:45:52;8.88;;;4.88;;
60169;SDS011;46042;49.444;6.862;2024-01-06T08:48:19;9.90;;;4.60;;
60169;SDS011;46042;49.444;6.862;2024-01-06T08:50:46;7.38;;;4.30;;
60169;SDS011;46042;49.444;6.862;2024-01-06T08:53:13;8.57;;;4.63;;
60169;SDS011;46042;49.444;6.862;2024-01-06T08:55:40;5.68;;;3.78;;
60169;SDS011;46042;49.444;6.862;2024-01-06T08:58:10;6.70;;;4.47;;
60169;SDS011;46042;49.444;6.862;2024-01-06T09:00:37;8.00;;;4.57;;
60169;SDS011;46042;49.444;6.862;2024-01-06T09:03:04;8.85;;;3.95;;
60169;SDS011;46042;49.444;6.862;2024-01-06T09:05:31;10.98;;;5.13;;
60169;SDS011;46042;49.444;6.862;2024-01-06T09:07:58;7.18;;;4.07;;
60169;SDS011;46042;49.444;6.862;2024-01-06T09:10:25;11.00;;;4.43;;
60169;SDS011;46042;49.444;6.862;2024-01-06T09:12:51;8.27;;;4.75;;
60169;SDS011;46042;49.444;6.862;2024-01-06T09:15:18;6.78;;;4.47;;
60169;SDS011;46042;49.444;6.862;2024-01-06T09:17:45;7.38;;;4.45;;
60169;SDS011;46042;49.444;6.862;2024-01-06T09:20:12;5.45;;;3.75;;
60169;SDS011;46042;49.444;6.862;2024-01-06T09:22:39;7.20;;;4.18;;
60169;SDS011;46042;49.444;6.862;2024-01-06T09:25:05;7.00;;;4.07;;
60169;SDS011;46042;49.444;6.862;2024-01-06T09:27:32;5.38;;;3.75;;
60169;SDS011;46042;49.444;6.862;2024-01-06T09:29:59;8.80;;;3.70;;
60169;SDS011;46042;49.444;6.862;2024-01-06T09:32:26;8.02;;;3.90;;
60169;SDS011;46042;49.444;6.862;2024-01-06T09:34:52;6.85;;;4.20;;
60169;SDS011;46042;49.444;6.862;2024-01-06T09:37:19;37.03;;;12.18;;
60169;SDS011;46042;49.444;6.862;2024-01-06T09:39:46;23.98;;;8.75;;
60169;SDS011;46042;49.444;6.862;2024-01-06T09:42:13;21.75;;;8.38;;
60169;SDS011;46042;49.444;6.862;2024-01-06T09:44:40;18.52;;;7.10;;
60169;SDS011;46042;49.444;6.862;2024-01-06T09:47:07;9.70;;;4.25;;
60169;SDS011;46042;49.444;6.862;2024-01-06T09:49:38;7.65;;;4.97;;
60169;SDS011;46042;49.444;6.862;2024-01-06T09:52:11;9.20;;;5.00;;
60169;SDS011;46042;49.444;6.862;2024-01-06T09:54:50;14.80;;;5.60;;
60169;SDS011;46042;49.444;6.862;2024-01-06T09:57:18;8.00;;;4.47;;
60169;SDS011;46042;49.444;6.862;2024-01-06T09:59:46;7.50;;;4.75;;
60169;SDS011;46042;49.444;6.862;2024-01-06T10:02:14;5.45;;;3.38;;
60169;SDS011;46042;49.444;6.862;2024-01-06T10:04:43;6.65;;;3.60;;
60169;SDS011;46042;49.444;6.862;2024-01-06T10:07:10;5.78;;;3.67;;
60169;SDS011;46042;49.444;6.862;2024-01-06T10:09:40;9.18;;;4.03;;
60169;SDS011;46042;49.444;6.862;2024-01-06T10:12:08;6.55;;;3.58;;
60169;SDS011;46042;49.444;6.862;2024-01-06T10:14:36;6.22;;;3.72;;
60169;SDS011;46042;49.444;6.862;2024-01-06T10:17:05;7.00;;;3.97;;
60169;SDS011;46042;49.444;6.862;2024-01-06T10:19:34;8.93;;;4.43;;
60169;SDS011;46042;49.444;6.862;2024-01-06T10:22:02;5.80;;;3.20;;
60169;SDS011;46042;49.444;6.862;2024-01-06T10:24:29;5.38;;;3.72;;
60169;SDS011;46042;49.444;6.862;2024-01-06T10:26:58;6.28;;;3.45;;
60169;SDS011;46042;49.444;6.862;2024-01-06T10:29:25;5.70;;;4.05;;
60169;SDS011;46042;49.444;6.862;2024-01-06T10:31:53;8.05;;;3.78;;
60169;SDS011;46042;49.444;6.862;2024-01-06T10:34:22;9.10;;;4.63;;
60169;SDS011;46042;49.444;6.862;2024-01-06T10:36:50;10.85;;;4.32;;
60169;SDS011;46042;49.444;6.862;2024-01-06T10:39:20;5.72;;;3.45;;
60169;SDS011;46042;49.444;6.862;2024-01-06T10:41:48;7.97;;;3.97;;
60169;SDS011;46042;49.444;6.862;2024-01-06T10:44:16;12.18;;;4.82;;
60169;SDS011;46042;49.444;6.862;2024-01-06T10:46:43;7.70;;;3.78;;
60169;SDS011;46042;49.444;6.862;2024-01-06T10:49:11;10.82;;;3.97;;
60169;SDS011;46042;49.444;6.862;2024-01-06T10:51:39;6.20;;;3.88;;
60169;SDS011;46042;49.444;6.862;2024-01-06T10:54:07;5.97;;;4.00;;
60169;SDS011;46042;49.444;6.862;2024-01-06T10:56:36;10.65;;;4.50;;
60169;SDS011;46042;49.444;6.862;2024-01-06T11:01:35;6.97;;;3.10;;
60169;SDS011;46042;49.444;6.862;2024-01-06T11:04:02;6.05;;;3.58;;
60169;SDS011;46042;49.444;6.862;2024-01-06T11:06:31;11.23;;;3.65;;
60169;SDS011;46042;49.444;6.862;2024-01-06T11:11:35;9.05;;;3.90;;
60169;SDS011;46042;49.444;6.862;2024-01-06T11:14:20;7.18;;;3.65;;
60169;SDS011;46042;49.444;6.862;2024-01-06T11:16:51;6.97;;;4.57;;
60169;SDS011;46042;49.444;6.862;2024-01-06T11:24:55;9.48;;;3.70;;
60169;SDS011;46042;49.444;6.862;2024-01-06T11:27:30;17.83;;;5.82;;
60169;SDS011;46042;49.444;6.862;2024-01-06T11:29:58;6.45;;;4.57;;
60169;SDS011;46042;49.444;6.862;2024-01-06T11:32:36;12.13;;;4.90;;
60169;SDS011;46042;49.444;6.862;2024-01-06T11:35:12;9.20;;;4.57;;
60169;SDS011;46042;49.444;6.862;2024-01-06T11:42:47;6.30;;;3.30;;
60169;SDS011;46042;49.444;6.862;2024-01-06T11:45:23;6.05;;;3.88;;
60169;SDS011;46042;49.444;6.862;2024-01-06T11:47:53;6.10;;;3.58;;
60169;SDS011;46042;49.444;6.862;2024-01-06T11:50:29;5.30;;;3.75;;
60169;SDS011;46042;49.444;6.862;2024-01-06T11:52:58;9.18;;;3.67;;
60169;SDS011;46042;49.444;6.862;2024-01-06T11:55:28;5.77;;;3.60;;
60169;SDS011;46042;49.444;6.862;2024-01-06T11:57:58;5.72;;;3.58;;
60169;SDS011;46042;49.444;6.862;2024-01-06T12:00:31;6.65;;;3.53;;
60169;SDS011;46042;49.444;6.862;2024-01-06T12:02:59;5.35;;;3.40;;
60169;SDS011;46042;49.444;6.862;2024-01-06T12:05:28;5.15;;;3.55;;
60169;SDS011;46042;49.444;6.862;2024-01-06T12:08:01;4.95;;;2.80;;
60169;SDS011;46042;49.444;6.862;2024-01-06T12:10:34;10.57;;;3.92;;
60169;SDS011;46042;49.444;6.862;2024-01-06T12:13:02;8.18;;;3.45;;
60169;SDS011;46042;49.444;6.862;2024-01-06T12:15:31;7.07;;;3.78;;
60169;SDS011;46042;49.444;6.862;2024-01-06T12:17:59;8.05;;;4.63;;
60169;SDS011;46042;49.444;6.862;2024-01-06T12:20:29;11.90;;;4.00;;
60169;SDS011;46042;49.444;6.862;2024-01-06T12:22:57;6.65;;;4.30;;
60169;SDS011;46042;49.444;6.862;2024-01-06T12:25:24;8.95;;;3.95;;
60169;SDS011;46042;49.444;6.862;2024-01-06T12:27:52;7.30;;;3.63;;
60169;SDS011;46042;49.444;6.862;2024-01-06T12:30:22;5.53;;;3.17;;
60169;SDS011;46042;49.444;6.862;2024-01-06T12:32:52;4.93;;;3.20;;
60169;SDS011;46042;49.444;6.862;2024-01-06T12:35:20;9.30;;;5.03;;
60169;SDS011;46042;49.444;6.862;2024-01-06T12:37:48;7.30;;;4.05;;
60169;SDS011;46042;49.444;6.862;2024-01-06T12:40:15;9.18;;;3.05;;
60169;SDS011;46042;49.444;6.862;2024-01-06T12:42:44;7.82;;;3.22;;
60169;SDS011;46042;49.444;6.862;2024-01-06T12:45:11;4.72;;;2.97;;
60169;SDS011;46042;49.444;6.862;2024-01-06T12:47:40;6.72;;;3.28;;
60169;SDS011;46042;49.444;6.862;2024-01-06T12:50:10;8.32;;;4.07;;
60169;SDS011;46042;49.444;6.862;2024-01-06T12:52:37;7.30;;;4.65;;
60169;SDS011;46042;49.444;6.862;2024-01-06T12:55:06;7.25;;;3.63;;
60169;SDS011;46042;49.444;6.862;2024-01-06T12:57:34;5.05;;;3.10;;
60169;SDS011;46042;49.444;6.862;2024-01-06T13:00:01;5.30;;;2.60;;
60169;SDS011;46042;49.444;6.862;2024-01-06T13:02:29;8.55;;;4.45;;
60169;SDS011;46042;49.444;6.862;2024-01-06T13:04:56;14.00;;;6.25;;
60169;SDS011;46042;49.444;6.862;2024-01-06T13:07:23;10.90;;;5.20;;
60169;SDS011;46042;49.444;6.862;2024-01-06T13:09:50;7.22;;;4.53;;
60169;SDS011;46042;49.444;6.862;2024-01-06T13:12:17;6.10;;;3.15;;
60169;SDS011;46042;49.444;6.862;2024-01-06T13:14:45;7.10;;;2.83;;
60169;SDS011;46042;49.444;6.862;2024-01-06T13:17:13;4.82;;;2.80;;
60169;SDS011;46042;49.444;6.862;2024-01-06T13:19:41;8.23;;;3.35;;
60169;SDS011;46042;49.444;6.862;2024-01-06T13:22:08;5.43;;;2.83;;
60169;SDS011;46042;49.444;6.862;2024-01-06T13:24:35;3.45;;;2.75;;
60169;SDS011;46042;49.444;6.862;2024-01-06T13:27:02;5.20;;;2.65;;
60169;SDS011;46042;49.444;6.862;2024-01-06T13:29:31;4.85;;;3.30;;
60169;SDS011;46042;49.444;6.862;2024-01-06T13:31:58;4.90;;;2.90;;
60169;SDS011;46042;49.444;6.862;2024-01-06T13:34:26;4.80;;;3.05;;
60169;SDS011;46042;49.444;6.862;2024-01-06T13:36:53;4.32;;;2.63;;
60169;SDS011;46042;49.444;6.862;2024-01-06T13:39:23;4.72;;;2.90;;
60169;SDS011;46042;49.444;6.862;2024-01-06T13:41:50;4.30;;;3.08;;
60169;SDS011;46042;49.444;6.862;2024-01-06T13:44:17;5.32;;;3.40;;
60169;SDS011;46042;49.444;6.862;2024-01-06T13:46:44;5.53;;;3.55;;
60169;SDS011;46042;49.444;6.862;2024-01-06T13:49:11;4.72;;;3.25;;
60169;SDS011;46042;49.444;6.862;2024-01-06T13:51:39;5.45;;;3.35;;
60169;SDS011;46042;49.444;6.862;2024-01-06T13:54:06;5.88;;;3.58;;
60169;SDS011;46042;49.444;6.862;2024-01-06T13:56:34;6.22;;;3.38;;
60169;SDS011;46042;49.444;6.862;2024-01-06T13:59:01;8.38;;;4.95;;
60169;SDS011;46042;49.444;6.862;2024-01-06T14:01:28;10.95;;;5.07;;
60169;SDS011;46042;49.444;6.862;2024-01-06T14:03:55;5.75;;;3.90;;
60169;SDS011;46042;49.444;6.862;2024-01-06T14:06:28;7.28;;;3.90;;
60169;SDS011;46042;49.444;6.862;2024-01-06T14:08:58;9.65;;;4.70;;
60169;SDS011;46042;49.444;6.862;2024-01-06T14:11:26;6.60;;;3.83;;
60169;SDS011;46042;49.444;6.862;2024-01-06T14:13:53;9.50;;;4.43;;
60169;SDS011;46042;49.444;6.862;2024-01-06T14:16:20;7.45;;;4.45;;
60169;SDS011;46042;49.444;6.862;2024-01-06T14:18:47;7.45;;;4.32;;
60169;SDS011;46042;49.444;6.862;2024-01-06T14:21:15;6.50;;;3.78;;
60169;SDS011;46042;49.444;6.862;2024-01-06T14:23:47;7.57;;;3.90;;
60169;SDS011;46042;49.444;6.862;2024-01-06T14:26:19;6.25;;;3.60;;
60169;SDS011;46042;49.444;6.862;2024-01-06T14:28:50;6.00;;;3.72;;
60169;SDS011;46042;49.444;6.862;2024-01-06T14:31:16;7.13;;;3.72;;
60169;SDS011;46042;49.444;6.862;2024-01-06T14:33:43;7.45;;;4.13;;
60169;SDS011;46042;49.444;6.862;2024-01-06T14:36:11;6.63;;;4.00;;
60169;SDS011;46042;49.444;6.862;2024-01-06T14:38:38;5.85;;;3.72;;
60169;SDS011;46042;49.444;6.862;2024-01-06T14:41:05;6.25;;;3.78;;
60169;SDS011;46042;49.444;6.862;2024-01-06T14:43:32;6.70;;;3.92;;
60169;SDS011;46042;49.444;6.862;2024-01-06T14:45:59;6.18;;;3.67;;
60169;SDS011;46042;49.444;6.862;2024-01-06T14:48:26;8.38;;;4.53;;
60169;SDS011;46042;49.444;6.862;2024-01-06T14:50:52;6.72;;;3.97;;
60169;SDS011;46042;49.444;6.862;2024-01-06T14:53:19;7.85;;;3.95;;
60169;SDS011;46042;49.444;6.862;2024-01-06T14:55:46;7.53;;;4.60;;
60169;SDS011;46042;49.444;6.862;2024-01-06T14:58:13;8.70;;;4.40;;
60169;SDS011;46042;49.444;6.862;2024-01-06T15:00:40;9.30;;;4.43;;
60169;SDS011;46042;49.444;6.862;2024-01-06T15:03:06;7.40;;;4.28;;
60169;SDS011;46042;49.444;6.862;2024-01-06T15:09:20;6.35;;;3.95;;